createdAt,value
2018-04-25T00:00:04.569Z,13.42
2018-04-25T00:01:04.568Z,13.44
2018-04-25T00:02:04.566Z,13.36
2018-04-25T00:03:04.564Z,13.38
2018-04-25T00:04:04.564Z,13.46
2018-04-25T00:05:04.561Z,13.48
2018-04-25T00:06:04.563Z,13.42
2018-04-25T00:07:04.561Z,13.41
2018-04-25T00:08:04.561Z,13.41
2018-04-25T00:09:04.557Z,13.39
2018-04-25T00:10:04.556Z,13.44
2018-04-25T00:11:04.556Z,13.38
2018-04-25T00:12:04.554Z,13.39
2018-04-25T00:13:04.553Z,13.38
2018-04-25T00:14:04.551Z,13.42
2018-04-25T00:15:04.551Z,13.39
2018-04-25T00:16:04.563Z,13.44
2018-04-25T00:17:04.548Z,13.41
2018-04-25T00:18:04.547Z,13.38
2018-04-25T00:19:04.545Z,13.26
2018-04-25T00:20:04.549Z,13.23
2018-04-25T00:21:04.541Z,13.33
2018-04-25T00:22:04.540Z,13.23
2018-04-25T00:23:04.542Z,13.33
2018-04-25T00:24:04.541Z,13.20
2018-04-25T00:25:04.550Z,13.26
2018-04-25T00:26:04.536Z,13.25
2018-04-25T00:27:04.536Z,13.32
2018-04-25T00:28:04.533Z,13.38
2018-04-25T00:29:04.533Z,13.38
2018-04-25T00:30:04.533Z,13.38
2018-04-25T00:31:04.531Z,13.42
2018-04-25T00:32:04.531Z,13.41
2018-04-25T00:33:04.527Z,13.39
2018-04-25T00:34:04.524Z,13.42
2018-04-25T00:35:04.523Z,13.45
2018-04-25T00:36:04.523Z,13.38
2018-04-25T00:37:04.528Z,13.33
2018-04-25T00:38:04.519Z,13.46
2018-04-25T00:39:04.520Z,13.36
2018-04-25T00:40:04.523Z,13.42
2018-04-25T00:41:04.524Z,13.39
2018-04-25T00:42:04.515Z,13.39
2018-04-25T00:43:04.516Z,13.49
2018-04-25T00:44:04.512Z,13.51
2018-04-25T00:45:04.512Z,13.41
2018-04-25T00:46:04.574Z,13.45
2018-04-25T00:47:04.511Z,13.42
2018-04-25T00:48:04.506Z,13.41
2018-04-25T00:49:04.506Z,13.42
2018-04-25T00:50:04.504Z,13.45
2018-04-25T00:51:04.503Z,13.60
2018-04-25T00:52:04.503Z,13.42
2018-04-25T00:53:04.499Z,13.48
2018-04-25T00:54:04.502Z,13.46
2018-04-25T00:55:04.496Z,13.49
2018-04-25T00:56:04.497Z,13.46
2018-04-25T00:57:04.500Z,13.42
2018-04-25T00:58:04.495Z,13.48
2018-04-25T00:59:04.493Z,13.46
2018-04-25T01:00:04.490Z,13.44
2018-04-25T01:01:04.489Z,13.46
2018-04-25T01:02:04.489Z,13.36
2018-04-25T01:03:04.487Z,13.41
2018-04-25T01:04:04.490Z,13.36
2018-04-25T01:05:04.483Z,13.49
2018-04-25T01:06:04.482Z,13.42
2018-04-25T01:07:04.481Z,13.42
2018-04-25T01:08:04.535Z,13.44
2018-04-25T01:09:04.478Z,13.51
2018-04-25T01:10:04.477Z,13.44
2018-04-25T01:11:04.480Z,13.45
2018-04-25T01:12:04.477Z,13.44
2018-04-25T01:13:04.474Z,13.45
2018-04-25T01:14:04.470Z,13.46
2018-04-25T01:15:04.469Z,13.41
2018-04-25T01:16:04.469Z,13.51
2018-04-25T01:17:04.467Z,13.49
2018-04-25T01:18:04.468Z,13.49
2018-04-25T01:19:04.468Z,13.45
2018-04-25T01:20:04.463Z,13.41
2018-04-25T01:21:04.463Z,13.46
2018-04-25T01:28:14.919Z,13.25
2018-04-25T01:29:14.895Z,13.25
2018-04-25T01:31:08.298Z,13.20
2018-04-25T01:32:08.291Z,13.20
2018-04-25T01:34:01.710Z,13.26
2018-04-25T01:35:01.688Z,13.28
2018-04-25T01:36:55.095Z,13.30
2018-04-25T01:37:55.084Z,13.23
2018-04-25T01:39:48.502Z,13.38
2018-04-25T01:40:48.482Z,13.33
2018-04-25T01:42:41.980Z,13.26
2018-04-25T01:49:33.704Z,13.33
2018-04-25T01:50:33.681Z,13.22
2018-04-25T01:52:27.071Z,13.23
2018-04-25T01:53:27.066Z,13.29
2018-04-25T01:55:20.485Z,13.26
2018-04-25T01:56:20.462Z,13.25
2018-04-25T01:58:13.977Z,13.26
2018-04-25T01:59:13.972Z,13.26
2018-04-25T02:01:07.381Z,13.38
2018-04-25T02:02:07.359Z,13.29
2018-04-25T02:04:00.749Z,13.29
2018-04-25T02:05:00.747Z,13.36
2018-04-25T02:06:00.745Z,13.23
2018-04-25T02:07:00.742Z,13.29
2018-04-25T02:08:00.739Z,13.38
2018-04-25T02:09:00.739Z,13.33
2018-04-25T02:10:00.738Z,13.32
2018-04-25T02:11:00.734Z,13.20
2018-04-25T02:12:00.742Z,13.29
2018-04-25T02:13:00.732Z,13.32
2018-04-25T02:14:00.732Z,13.33
2018-04-25T02:15:00.733Z,13.32
2018-04-25T02:16:00.728Z,13.38
2018-04-25T02:17:00.728Z,13.39
2018-04-25T02:18:00.724Z,13.32
2018-04-25T02:19:00.727Z,13.28
2018-04-25T02:20:00.724Z,13.23
2018-04-25T02:21:00.719Z,13.23
2018-04-25T02:22:00.721Z,13.20
2018-04-25T02:23:00.718Z,13.15
2018-04-25T02:24:00.724Z,13.15
2018-04-25T02:25:00.713Z,13.23
2018-04-25T02:26:00.714Z,13.30
2018-04-25T02:27:00.711Z,13.28
2018-04-25T02:28:00.711Z,13.23
2018-04-25T02:29:00.713Z,13.22
2018-04-25T02:30:00.711Z,13.28
2018-04-25T02:31:00.702Z,13.25
2018-04-25T02:32:00.704Z,13.29
2018-04-25T02:33:00.704Z,13.25
2018-04-25T02:34:00.701Z,13.22
2018-04-25T02:35:00.699Z,13.20
2018-04-25T02:36:00.702Z,13.23
2018-04-25T02:37:00.697Z,13.22
2018-04-25T02:38:00.698Z,13.23
2018-04-25T02:39:00.694Z,13.30
2018-04-25T02:40:00.691Z,13.28
2018-04-25T02:41:00.695Z,13.26
2018-04-25T02:42:00.692Z,13.25
2018-04-25T02:43:00.686Z,13.25
2018-04-25T02:44:00.685Z,13.28
2018-04-25T02:45:00.684Z,13.23
2018-04-25T02:46:00.683Z,13.38
2018-04-25T02:47:00.680Z,13.25
2018-04-25T02:48:00.679Z,13.25
2018-04-25T02:49:00.680Z,13.10
2018-04-25T02:50:00.679Z,13.19
2018-04-25T02:51:00.673Z,13.11
2018-04-25T02:52:00.674Z,13.23
2018-04-25T02:53:00.670Z,13.25
2018-04-25T02:54:00.670Z,13.32
2018-04-25T02:55:00.672Z,13.23
2018-04-25T02:56:00.669Z,13.33
2018-04-25T02:57:00.664Z,13.23
2018-04-25T02:58:00.665Z,13.28
2018-04-25T02:59:00.749Z,13.23
2018-04-25T03:00:00.663Z,13.32
2018-04-25T03:01:00.662Z,13.33
2018-04-25T03:02:00.659Z,13.30
2018-04-25T03:03:00.655Z,13.38
2018-04-25T03:04:00.657Z,13.26
2018-04-25T03:05:00.671Z,13.25
2018-04-25T03:06:00.650Z,13.33
2018-04-25T03:07:00.646Z,13.41
2018-04-25T03:08:00.649Z,13.39
2018-04-25T03:09:00.646Z,13.41
2018-04-25T03:10:00.644Z,13.33
2018-04-25T03:11:00.642Z,13.29
2018-04-25T03:12:00.639Z,13.44
2018-04-25T03:13:00.638Z,13.36
2018-04-25T03:14:00.640Z,13.39
2018-04-25T03:15:00.634Z,13.42
2018-04-25T03:16:00.633Z,13.41
2018-04-25T03:17:00.631Z,13.41
2018-04-25T03:18:00.631Z,13.44
2018-04-25T03:19:00.627Z,13.41
2018-04-25T03:20:00.627Z,13.46
2018-04-25T03:21:00.627Z,13.46
2018-04-25T03:22:00.627Z,13.48
2018-04-25T03:23:00.621Z,13.42
2018-04-25T03:24:00.620Z,13.52
2018-04-25T03:25:00.617Z,13.48
2018-04-25T03:26:00.616Z,13.48
2018-04-25T03:27:00.615Z,13.44
2018-04-25T03:28:00.614Z,13.46
2018-04-25T03:29:00.618Z,13.51
2018-04-25T03:30:00.612Z,13.49
2018-04-25T03:31:00.611Z,13.49
2018-04-25T03:32:00.610Z,13.54
2018-04-25T03:33:00.607Z,13.52
2018-04-25T03:34:00.609Z,13.46
2018-04-25T03:35:00.601Z,13.51
2018-04-25T03:36:00.606Z,13.55
2018-04-25T03:37:00.600Z,13.57
2018-04-25T03:38:00.598Z,13.45
2018-04-25T03:39:00.608Z,13.55
2018-04-25T03:40:00.597Z,13.46
2018-04-25T03:41:00.618Z,13.60
2018-04-25T03:42:00.593Z,13.57
2018-04-25T03:43:00.590Z,13.54
2018-04-25T03:44:00.590Z,13.52
2018-04-25T03:45:00.588Z,13.51
2018-04-25T03:46:00.585Z,13.54
2018-04-25T03:47:00.588Z,13.57
2018-04-25T03:48:00.583Z,13.62
2018-04-25T03:49:00.583Z,13.54
2018-04-25T03:50:00.581Z,13.46
2018-04-25T03:51:00.576Z,13.45
2018-04-25T03:52:00.578Z,13.52
2018-04-25T03:53:00.574Z,13.52
2018-04-25T03:54:00.574Z,13.66
2018-04-25T03:55:00.576Z,13.59
2018-04-25T03:56:00.571Z,13.59
2018-04-25T03:57:00.573Z,13.63
2018-04-25T03:58:00.569Z,13.63
2018-04-25T03:59:00.626Z,13.57
2018-04-25T04:00:00.563Z,13.63
2018-04-25T04:01:00.561Z,13.54
2018-04-25T04:02:00.565Z,13.54
2018-04-25T04:03:00.557Z,13.62
2018-04-25T04:04:00.561Z,13.66
2018-04-25T04:05:00.612Z,13.59
2018-04-25T04:06:00.553Z,13.62
2018-04-25T04:07:00.555Z,13.54
2018-04-25T04:08:00.555Z,13.57
2018-04-25T04:09:00.550Z,13.57
2018-04-25T04:10:00.550Z,13.62
2018-04-25T04:11:00.546Z,13.54
2018-04-25T04:12:00.546Z,13.49
2018-04-25T04:13:00.632Z,13.63
2018-04-25T04:14:00.542Z,13.62
2018-04-25T04:15:00.539Z,13.59
2018-04-25T04:16:00.539Z,13.59
2018-04-25T04:17:00.537Z,13.57
2018-04-25T04:18:00.534Z,13.51
2018-04-25T04:19:00.534Z,13.51
2018-04-25T04:20:00.536Z,13.49
2018-04-25T04:21:00.531Z,13.55
2018-04-25T04:22:00.529Z,13.62
2018-04-25T04:23:00.527Z,13.46
2018-04-25T04:24:00.521Z,13.59
2018-04-25T04:25:00.525Z,13.49
2018-04-25T04:26:00.526Z,13.64
2018-04-25T04:27:00.575Z,13.59
2018-04-25T04:28:00.523Z,13.51
2018-04-25T04:29:00.521Z,13.46
2018-04-25T04:30:00.521Z,13.57
2018-04-25T04:31:00.514Z,13.55
2018-04-25T04:32:00.513Z,13.54
2018-04-25T04:33:00.513Z,13.42
2018-04-25T04:34:00.509Z,13.45
2018-04-25T04:35:00.508Z,13.48
2018-04-25T04:36:00.505Z,13.42
2018-04-25T04:37:00.503Z,13.42
2018-04-25T04:38:00.504Z,13.54
2018-04-25T04:39:00.500Z,13.57
2018-04-25T04:40:00.497Z,13.49
2018-04-25T04:41:00.498Z,13.64
2018-04-25T04:42:00.572Z,13.55
2018-04-25T04:43:00.495Z,13.57
2018-04-25T04:44:00.492Z,13.55
2018-04-25T04:45:00.491Z,13.48
2018-04-25T04:46:00.490Z,13.45
2018-04-25T04:47:00.490Z,13.45
2018-04-25T04:48:00.486Z,13.55
2018-04-25T04:49:00.483Z,13.51
2018-04-25T04:50:00.490Z,13.45
2018-04-25T04:51:00.481Z,13.60
2018-04-25T04:52:00.477Z,13.60
2018-04-25T04:53:00.485Z,13.62
2018-04-25T04:54:00.476Z,13.60
2018-04-25T04:55:00.475Z,13.63
2018-04-25T04:56:00.478Z,13.63
2018-04-25T04:57:00.471Z,13.70
2018-04-25T04:58:00.471Z,13.64
2018-04-25T04:59:00.473Z,13.73
2018-04-25T05:00:00.467Z,13.70
2018-04-25T05:01:00.465Z,13.67
2018-04-25T05:02:00.464Z,13.75
2018-04-25T05:03:00.462Z,13.79
2018-04-25T05:04:00.460Z,13.81
2018-04-25T05:05:00.458Z,13.64
2018-04-25T05:06:00.461Z,13.79
2018-04-25T05:07:00.457Z,13.75
2018-04-25T05:08:00.460Z,13.75
2018-04-25T05:09:00.453Z,13.79
2018-04-25T05:10:00.453Z,13.75
2018-04-25T05:11:00.450Z,13.85
2018-04-25T05:12:00.449Z,13.91
2018-04-25T05:13:00.524Z,13.82
2018-04-25T05:14:00.445Z,13.89
2018-04-25T05:15:00.442Z,13.88
2018-04-25T05:16:00.444Z,13.99
2018-04-25T05:17:00.442Z,13.87
2018-04-25T05:18:00.441Z,13.96
2018-04-25T05:19:00.440Z,13.95
2018-04-25T05:20:00.436Z,14.00
2018-04-25T05:21:00.435Z,13.95
2018-04-25T05:22:00.433Z,14.03
2018-04-25T05:23:00.436Z,14.07
2018-04-25T05:24:00.433Z,14.03
2018-04-25T05:25:00.429Z,14.02
2018-04-25T05:26:00.429Z,13.87
2018-04-25T05:27:00.427Z,13.95
2018-04-25T05:28:00.428Z,13.97
2018-04-25T05:29:00.425Z,14.07
2018-04-25T05:30:00.421Z,14.07
2018-04-25T05:31:00.419Z,14.04
2018-04-25T05:32:00.469Z,14.03
2018-04-25T05:33:00.417Z,14.09
2018-04-25T05:34:00.417Z,14.06
2018-04-25T05:35:00.413Z,14.06
2018-04-25T05:36:00.418Z,14.09
2018-04-25T05:37:00.418Z,14.07
2018-04-25T05:38:00.407Z,14.07
2018-04-25T05:39:00.410Z,14.03
2018-04-25T05:40:00.407Z,14.07
2018-04-25T05:41:00.409Z,14.04
2018-04-25T05:42:00.407Z,13.96
2018-04-25T05:43:00.402Z,14.06
2018-04-25T05:44:00.401Z,14.03
2018-04-25T05:45:00.400Z,13.97
2018-04-25T05:46:00.408Z,14.07
2018-04-25T05:47:00.401Z,14.10
2018-04-25T05:48:00.396Z,14.07
2018-04-25T05:49:00.397Z,14.17
2018-04-25T05:50:00.394Z,14.15
2018-04-25T05:51:00.398Z,14.17
2018-04-25T05:52:00.390Z,14.18
2018-04-25T05:53:00.397Z,14.15
2018-04-25T05:54:00.388Z,14.14
2018-04-25T05:55:00.416Z,14.17
2018-04-25T05:56:00.387Z,14.24
2018-04-25T05:57:00.386Z,14.37
2018-04-25T05:58:00.472Z,14.33
2018-04-25T05:59:00.397Z,14.28
2018-04-25T06:00:00.378Z,14.35
2018-04-25T06:01:00.380Z,14.32
2018-04-25T06:02:00.375Z,14.29
2018-04-25T06:03:00.377Z,14.29
2018-04-25T06:04:00.371Z,14.29
2018-04-25T06:05:00.374Z,14.45
2018-04-25T06:06:00.373Z,14.52
2018-04-25T06:07:00.370Z,14.46
2018-04-25T06:08:00.380Z,14.51
2018-04-25T06:09:00.369Z,14.54
2018-04-25T06:10:00.366Z,14.61
2018-04-25T06:11:00.367Z,14.68
2018-04-25T06:12:00.364Z,14.73
2018-04-25T06:13:00.370Z,14.68
2018-04-25T06:14:00.362Z,14.69
2018-04-25T06:15:00.362Z,14.51
2018-04-25T06:16:00.359Z,14.65
2018-04-25T06:17:00.359Z,14.78
2018-04-25T06:18:00.363Z,14.70
2018-04-25T06:19:00.363Z,14.70
2018-04-25T06:20:00.373Z,14.78
2018-04-25T06:21:00.358Z,14.55
2018-04-25T06:22:00.355Z,14.58
2018-04-25T06:23:00.355Z,14.54
2018-04-25T06:24:00.352Z,14.61
2018-04-25T06:25:00.357Z,14.60
2018-04-25T06:26:00.351Z,14.57
2018-04-25T06:27:00.352Z,14.57
2018-04-25T06:28:00.347Z,14.58
2018-04-25T06:29:00.347Z,14.61
2018-04-25T06:30:00.350Z,14.62
2018-04-25T06:31:00.346Z,14.58
2018-04-25T06:32:00.346Z,14.57
2018-04-25T06:33:00.344Z,14.64
2018-04-25T06:34:00.375Z,14.72
2018-04-25T06:35:00.341Z,14.69
2018-04-25T06:36:00.343Z,14.73
2018-04-25T06:37:00.340Z,14.81
2018-04-25T06:38:00.345Z,14.77
2018-04-25T06:39:00.340Z,14.80
2018-04-25T06:40:00.338Z,14.72
2018-04-25T06:41:00.344Z,14.68
2018-04-25T06:42:00.335Z,14.80
2018-04-25T06:43:00.335Z,14.75
2018-04-25T06:44:00.332Z,14.86
2018-04-25T06:45:00.409Z,14.80
2018-04-25T06:46:00.334Z,14.83
2018-04-25T06:47:00.343Z,14.92
2018-04-25T06:48:00.332Z,14.81
2018-04-25T06:49:00.333Z,14.92
2018-04-25T06:50:00.329Z,14.78
2018-04-25T06:51:00.331Z,14.89
2018-04-25T06:52:00.329Z,14.86
2018-04-25T06:53:00.323Z,14.83
2018-04-25T06:54:00.323Z,14.92
2018-04-25T06:55:00.326Z,14.88
2018-04-25T06:56:00.325Z,14.81
2018-04-25T06:57:00.320Z,14.77
2018-04-25T06:58:00.321Z,14.80
2018-04-25T06:59:00.319Z,14.78
2018-04-25T07:00:00.330Z,14.84
2018-04-25T07:01:00.316Z,14.75
2018-04-25T07:02:00.317Z,14.78
2018-04-25T07:03:00.324Z,14.91
2018-04-25T07:04:00.314Z,14.80
2018-04-25T07:05:00.317Z,14.81
2018-04-25T07:06:00.312Z,14.80
2018-04-25T07:07:00.315Z,14.83
2018-04-25T07:08:00.397Z,14.83
2018-04-25T07:09:00.312Z,14.86
2018-04-25T07:10:00.312Z,14.83
2018-04-25T07:11:00.307Z,14.92
2018-04-25T07:12:00.311Z,14.95
2018-04-25T07:13:00.312Z,15.01
2018-04-25T07:14:00.361Z,14.95
2018-04-25T07:15:00.309Z,14.94
2018-04-25T07:16:00.303Z,14.94
2018-04-25T07:17:00.304Z,14.96
2018-04-25T07:18:00.304Z,15.01
2018-04-25T07:19:00.301Z,14.98
2018-04-25T07:20:00.305Z,14.99
2018-04-25T07:21:00.301Z,14.99
2018-04-25T07:22:00.303Z,14.96
2018-04-25T07:23:00.303Z,14.96
2018-04-25T07:24:00.302Z,14.92
2018-04-25T07:25:00.300Z,14.91
2018-04-25T07:26:00.380Z,14.95
2018-04-25T07:27:00.295Z,14.91
2018-04-25T07:28:00.293Z,14.92
2018-04-25T07:29:00.300Z,14.99
2018-04-25T07:30:00.294Z,14.98
2018-04-25T07:31:00.291Z,14.95
2018-04-25T07:32:00.293Z,14.95
2018-04-25T07:33:00.291Z,14.94
2018-04-25T07:34:00.338Z,14.96
2018-04-25T07:35:00.290Z,15.06
2018-04-25T07:36:00.291Z,15.07
2018-04-25T07:37:00.291Z,15.02
2018-04-25T07:38:00.288Z,15.11
2018-04-25T07:39:00.288Z,15.11
2018-04-25T07:40:00.290Z,15.11
2018-04-25T07:41:00.290Z,15.16
2018-04-25T07:42:00.378Z,15.17
2018-04-25T07:43:00.284Z,15.21
2018-04-25T07:44:00.284Z,15.21
2018-04-25T07:45:00.286Z,15.31
2018-04-25T07:46:00.285Z,15.28
2018-04-25T07:47:00.279Z,15.31
2018-04-25T07:48:00.275Z,15.36
2018-04-25T07:49:00.282Z,15.44
2018-04-25T07:50:00.280Z,15.43
2018-04-25T07:51:00.277Z,15.53
2018-04-25T07:52:00.281Z,15.49
2018-04-25T07:53:00.274Z,15.50
2018-04-25T07:54:00.271Z,15.57
2018-04-25T07:55:00.276Z,15.62
2018-04-25T07:56:00.279Z,15.76
2018-04-25T07:57:00.283Z,15.92
2018-04-25T07:58:00.274Z,15.96
2018-04-25T07:59:00.271Z,16.08
2018-04-25T08:00:00.275Z,16.17
2018-04-25T08:01:00.349Z,16.25
2018-04-25T08:02:00.298Z,16.28
2018-04-25T08:03:00.292Z,16.46
2018-04-25T08:04:00.269Z,16.66
2018-04-25T08:05:00.270Z,16.79
2018-04-25T08:06:00.327Z,17.04
2018-04-25T08:07:00.269Z,17.28
2018-04-25T08:08:00.273Z,17.28
2018-04-25T08:09:00.269Z,17.16
2018-04-25T08:10:00.268Z,17.06
2018-04-25T08:11:00.267Z,17.04
2018-04-25T08:12:00.267Z,17.16
2018-04-25T08:13:00.268Z,17.14
2018-04-25T08:14:00.271Z,17.18
2018-04-25T08:15:00.267Z,17.23
2018-04-25T08:16:00.517Z,17.14
2018-04-25T08:17:00.301Z,17.07
2018-04-25T08:18:00.355Z,17.14
2018-04-25T08:19:00.367Z,17.15
2018-04-25T08:20:00.274Z,17.14
2018-04-25T08:21:00.270Z,17.21
2018-04-25T08:22:00.272Z,17.44
2018-04-25T08:23:00.271Z,17.52
2018-04-25T08:24:00.273Z,17.49
2018-04-25T08:25:00.273Z,17.59
2018-04-25T08:26:00.280Z,17.72
2018-04-25T08:27:00.365Z,17.82
2018-04-25T08:28:00.274Z,17.82
2018-04-25T08:29:00.614Z,17.86
2018-04-25T08:30:00.274Z,17.71
2018-04-25T08:31:00.281Z,17.68
2018-04-25T08:32:00.281Z,17.64
2018-04-25T08:33:00.281Z,17.34
2018-04-25T08:34:00.278Z,17.33
2018-04-25T08:35:00.651Z,17.31
2018-04-25T08:36:00.279Z,17.36
2018-04-25T08:37:00.285Z,17.38
2018-04-25T08:38:00.282Z,17.33
2018-04-25T08:39:00.282Z,17.41
2018-04-25T08:40:00.287Z,17.46
2018-04-25T08:41:00.285Z,17.58
2018-04-25T08:42:00.327Z,17.62
2018-04-25T08:43:00.286Z,17.72
2018-04-25T08:44:00.290Z,17.68
2018-04-25T08:45:00.314Z,17.84
2018-04-25T08:46:00.289Z,17.86
2018-04-25T08:47:00.292Z,17.84
2018-04-25T08:48:00.293Z,18.00
2018-04-25T08:49:00.379Z,18.07
2018-04-25T08:50:00.298Z,18.23
2018-04-25T08:51:00.294Z,18.57
2018-04-25T08:52:00.294Z,18.66
2018-04-25T08:53:00.298Z,18.75
2018-04-25T08:54:00.302Z,18.78
2018-04-25T08:55:00.296Z,18.92
2018-04-25T08:56:00.305Z,19.13
2018-04-25T08:57:00.308Z,19.19
2018-04-25T08:58:00.304Z,19.19
2018-04-25T08:59:00.304Z,19.21
2018-04-25T09:00:00.303Z,19.08
2018-04-25T09:01:00.309Z,19.19
2018-04-25T09:02:00.313Z,19.18
2018-04-25T09:03:00.313Z,19.23
2018-04-25T09:04:00.312Z,19.19
2018-04-25T09:05:00.313Z,19.41
2018-04-25T09:06:00.320Z,19.55
2018-04-25T09:07:00.323Z,19.65
2018-04-25T09:08:00.491Z,19.76
2018-04-25T09:09:00.801Z,19.68
2018-04-25T09:10:00.326Z,19.68
2018-04-25T09:11:00.321Z,19.61
2018-04-25T09:12:00.366Z,19.62
2018-04-25T09:13:00.332Z,19.59
2018-04-25T09:14:00.329Z,19.61
2018-04-25T09:15:00.332Z,19.48
2018-04-25T09:16:00.333Z,19.69
2018-04-25T09:17:00.334Z,19.78
2018-04-25T09:18:00.341Z,19.66
2018-04-25T09:19:00.341Z,19.80
2018-04-25T09:20:00.377Z,19.95
2018-04-25T09:21:00.350Z,19.84
2018-04-25T09:22:00.347Z,19.87
2018-04-25T09:23:00.350Z,20.01
2018-04-25T09:24:00.351Z,20.03
2018-04-25T09:25:00.353Z,19.96
2018-04-25T09:26:00.358Z,20.10
2018-04-25T09:27:00.356Z,20.02
2018-04-25T09:28:00.360Z,20.02
2018-04-25T09:29:00.360Z,19.99
2018-04-25T09:30:00.366Z,19.92
2018-04-25T09:31:00.371Z,19.74
2018-04-25T09:32:00.368Z,20.14
2018-04-25T09:33:00.445Z,20.20
2018-04-25T09:34:00.372Z,20.01
2018-04-25T09:35:00.378Z,20.06
2018-04-25T09:36:00.388Z,19.87
2018-04-25T09:37:00.378Z,20.05
2018-04-25T09:38:00.384Z,20.33
2018-04-25T09:39:00.391Z,20.52
2018-04-25T09:40:00.398Z,20.57
2018-04-25T09:41:00.410Z,20.66
2018-04-25T09:42:00.394Z,20.52
2018-04-25T09:43:00.389Z,20.70
2018-04-25T09:44:00.400Z,20.92
2018-04-25T09:45:00.399Z,21.04
2018-04-25T09:46:00.463Z,21.12
2018-04-25T09:47:00.762Z,21.09
2018-04-25T09:48:00.412Z,21.10
2018-04-25T09:49:00.603Z,21.09
2018-04-25T09:50:00.416Z,20.98
2018-04-25T09:51:00.430Z,20.62
2018-04-25T09:52:00.420Z,20.62
2018-04-25T09:53:00.423Z,20.51
2018-04-25T09:54:00.434Z,20.54
2018-04-25T09:55:00.427Z,20.55
2018-04-25T09:56:00.431Z,20.55
2018-04-25T09:57:00.433Z,20.67
2018-04-25T09:58:00.600Z,20.66
2018-04-25T09:59:00.442Z,20.87
2018-04-25T10:00:00.440Z,20.89
2018-04-25T10:01:00.447Z,20.50
2018-04-25T10:02:00.447Z,20.55
2018-04-25T10:03:00.450Z,20.58
2018-04-25T10:04:00.523Z,20.52
2018-04-25T10:05:00.457Z,20.35
2018-04-25T10:06:00.462Z,20.39
2018-04-25T10:07:00.461Z,20.52
2018-04-25T10:08:00.466Z,20.73
2018-04-25T10:09:00.474Z,20.79
2018-04-25T10:10:00.474Z,20.88
2018-04-25T10:11:00.481Z,20.94
2018-04-25T10:12:00.482Z,20.92
2018-04-25T10:13:00.479Z,21.07
2018-04-25T10:14:00.758Z,21.16
2018-04-25T10:15:00.484Z,20.89
2018-04-25T10:16:00.492Z,21.04
2018-04-25T10:17:00.509Z,21.01
2018-04-25T10:18:00.505Z,21.01
2018-04-25T10:19:00.504Z,20.99
2018-04-25T10:20:00.501Z,21.01
2018-04-25T10:21:00.533Z,21.16
2018-04-25T10:22:00.507Z,21.17
2018-04-25T10:23:01.046Z,21.10
2018-04-25T10:24:00.539Z,20.97
2018-04-25T10:25:00.517Z,20.94
2018-04-25T10:26:00.520Z,20.77
2018-04-25T10:27:00.522Z,20.39
2018-04-25T10:28:00.529Z,20.16
2018-04-25T10:29:00.528Z,20.05
2018-04-25T10:30:00.532Z,19.87
2018-04-25T10:31:00.557Z,19.84
2018-04-25T10:32:00.614Z,19.62
2018-04-25T10:33:00.673Z,19.47
2018-04-25T10:34:00.543Z,19.37
2018-04-25T10:35:00.545Z,19.28
2018-04-25T10:36:00.562Z,19.21
2018-04-25T10:37:00.554Z,19.19
2018-04-25T10:38:00.555Z,19.18
2018-04-25T10:39:00.656Z,19.23
2018-04-25T10:40:00.558Z,19.10
2018-04-25T10:41:00.569Z,18.98
2018-04-25T10:42:00.566Z,18.95
2018-04-25T10:43:00.837Z,18.90
2018-04-25T10:44:00.568Z,18.88
2018-04-25T10:45:00.575Z,18.92
2018-04-25T10:46:00.573Z,18.84
2018-04-25T10:47:00.576Z,18.67
2018-04-25T10:48:00.577Z,18.66
2018-04-25T10:49:00.582Z,18.66
2018-04-25T10:50:00.581Z,18.76
2018-04-25T10:51:00.583Z,18.72
2018-04-25T10:52:00.585Z,18.72
2018-04-25T10:53:00.596Z,18.65
2018-04-25T10:54:00.589Z,18.60
2018-04-25T10:55:00.589Z,18.47
2018-04-25T10:56:00.594Z,17.99
2018-04-25T10:57:00.593Z,17.79
2018-04-25T10:58:00.596Z,17.75
2018-04-25T10:59:00.611Z,17.59
2018-04-25T11:00:00.599Z,17.22
2018-04-25T11:01:00.602Z,17.01
2018-04-25T11:02:00.603Z,16.64
2018-04-25T11:03:00.606Z,16.63
2018-04-25T11:04:00.604Z,16.52
2018-04-25T11:05:00.607Z,16.25
2018-04-25T11:06:00.608Z,16.20
2018-04-25T11:07:00.610Z,16.11
2018-04-25T11:08:00.610Z,15.86
2018-04-25T11:09:00.612Z,15.83
2018-04-25T11:10:00.616Z,15.87
2018-04-25T11:11:00.613Z,15.97
2018-04-25T11:12:00.614Z,15.92
2018-04-25T11:13:00.616Z,16.09
2018-04-25T11:14:00.616Z,16.08
2018-04-25T11:15:00.615Z,16.27
2018-04-25T11:16:00.619Z,16.31
2018-04-25T11:17:00.622Z,16.52
2018-04-25T11:18:00.620Z,16.31
2018-04-25T11:19:00.620Z,16.28
2018-04-25T11:20:00.625Z,16.27
2018-04-25T11:21:00.619Z,16.14
2018-04-25T11:22:00.623Z,16.08
2018-04-25T11:23:00.627Z,15.92
2018-04-25T11:24:00.632Z,15.96
2018-04-25T11:25:00.690Z,15.65
2018-04-25T11:26:00.625Z,15.69
2018-04-25T11:27:00.626Z,15.76
2018-04-25T11:28:00.626Z,15.71
2018-04-25T11:29:00.631Z,15.60
2018-04-25T11:30:00.628Z,15.75
2018-04-25T11:31:00.625Z,15.71
2018-04-25T11:32:00.657Z,15.90
2018-04-25T11:33:00.629Z,16.12
2018-04-25T11:34:00.630Z,16.25
2018-04-25T11:35:00.633Z,16.46
2018-04-25T11:36:00.626Z,16.57
2018-04-25T11:37:00.635Z,16.73
2018-04-25T11:38:00.709Z,16.85
2018-04-25T11:39:00.636Z,16.88
2018-04-25T11:40:00.638Z,16.73
2018-04-25T11:41:00.634Z,16.68
2018-04-25T11:42:00.636Z,16.70
2018-04-25T11:43:00.633Z,16.70
2018-04-25T11:44:00.678Z,16.94
2018-04-25T11:45:00.635Z,16.93
2018-04-25T11:46:00.639Z,17.11
2018-04-25T11:47:00.636Z,17.19
2018-04-25T11:48:00.637Z,17.26
2018-04-25T11:49:00.637Z,17.36
2018-04-25T11:50:00.638Z,17.37
2018-04-25T11:51:00.638Z,17.49
2018-04-25T11:52:00.638Z,17.46
2018-04-25T11:53:00.645Z,17.44
2018-04-25T11:54:00.645Z,17.51
2018-04-25T11:55:00.647Z,17.56
2018-04-25T11:56:00.644Z,17.56
2018-04-25T11:57:00.653Z,17.71
2018-04-25T11:58:00.647Z,17.79
2018-04-25T11:59:00.645Z,17.77
2018-04-25T12:00:00.645Z,17.77
2018-04-25T12:01:00.650Z,17.77
2018-04-25T12:02:00.646Z,17.64
2018-04-25T12:03:00.647Z,17.64
2018-04-25T12:04:00.645Z,17.58
2018-04-25T12:05:00.704Z,17.68
2018-04-25T12:06:00.655Z,17.71
2018-04-25T12:07:00.652Z,17.66
2018-04-25T12:08:00.650Z,17.79
2018-04-25T12:09:00.646Z,17.89
2018-04-25T12:10:00.650Z,17.96
2018-04-25T12:11:00.652Z,18.11
2018-04-25T12:12:00.653Z,18.12
2018-04-25T12:13:00.656Z,18.27
2018-04-25T12:14:00.665Z,18.45
2018-04-25T12:15:00.659Z,18.73
2018-04-25T12:16:00.656Z,18.95
2018-04-25T12:17:00.658Z,18.91
2018-04-25T12:18:00.657Z,19.00
2018-04-25T12:19:00.664Z,18.87
2018-04-25T12:20:00.655Z,18.69
2018-04-25T12:21:00.667Z,18.39
2018-04-25T12:22:00.662Z,18.11
2018-04-25T12:23:00.664Z,17.96
2018-04-25T12:24:00.663Z,17.74
2018-04-25T12:25:00.665Z,17.78
2018-04-25T12:26:00.668Z,17.63
2018-04-25T12:27:00.667Z,17.51
2018-04-25T12:28:00.672Z,17.37
2018-04-25T12:29:00.669Z,17.40
2018-04-25T12:30:00.671Z,17.66
2018-04-25T12:31:00.673Z,17.75
2018-04-25T12:32:00.677Z,17.81
2018-04-25T12:33:00.676Z,17.84
2018-04-25T12:34:00.678Z,17.68
2018-04-25T12:35:00.676Z,17.68
2018-04-25T12:36:00.676Z,17.75
2018-04-25T12:37:00.708Z,17.66
2018-04-25T12:38:00.682Z,17.71
2018-04-25T12:39:00.678Z,17.64
2018-04-25T12:40:00.680Z,17.64
2018-04-25T12:41:00.680Z,17.82
2018-04-25T12:42:00.683Z,17.79
2018-04-25T12:43:00.685Z,17.92
2018-04-25T12:44:00.687Z,17.89
2018-04-25T12:45:00.684Z,18.00
2018-04-25T12:46:00.685Z,18.05
2018-04-25T12:47:00.694Z,17.99
2018-04-25T12:48:00.691Z,18.08
2018-04-25T12:49:00.692Z,18.12
2018-04-25T12:50:00.690Z,18.18
2018-04-25T12:51:00.689Z,18.27
2018-04-25T12:52:00.693Z,18.21
2018-04-25T12:53:00.692Z,18.21
2018-04-25T12:54:00.901Z,18.23
2018-04-25T12:55:00.706Z,18.25
2018-04-25T12:56:00.692Z,18.39
2018-04-25T12:57:00.693Z,18.39
2018-04-25T12:58:00.696Z,18.52
2018-04-25T12:59:00.743Z,18.54
2018-04-25T13:00:00.697Z,18.72
2018-04-25T13:01:00.699Z,18.69
2018-04-25T13:02:00.700Z,18.76
2018-04-25T13:03:00.703Z,18.73
2018-04-25T13:04:00.700Z,18.76
2018-04-25T13:05:00.702Z,18.85
2018-04-25T13:06:00.704Z,18.92
2018-04-25T13:07:00.709Z,19.18
2018-04-25T13:08:00.708Z,19.22
2018-04-25T13:09:00.784Z,19.31
2018-04-25T13:10:00.712Z,19.43
2018-04-25T13:11:00.709Z,19.29
2018-04-25T13:12:00.709Z,19.16
2018-04-25T13:13:00.710Z,19.04